createdAt,value
2019-05-20T01:28:06.432Z,13.00
2019-05-20T01:30:36.742Z,12.77
2019-05-20T01:33:13.754Z,13.17
2019-05-20T01:35:36.737Z,12.43
2019-05-20T01:38:05.879Z,13.03
2019-05-20T01:40:35.323Z,12.77
2019-05-20T01:43:05.011Z,12.43
2019-05-20T01:45:34.267Z,12.23
2019-05-20T01:48:11.769Z,12.33
2019-05-20T01:50:40.898Z,11.57
2019-05-20T01:53:10.041Z,12.30
2019-05-20T01:55:39.163Z,11.83
2019-05-20T01:58:08.304Z,11.20
2019-05-20T02:00:37.591Z,10.90
2019-05-20T02:03:06.843Z,11.53
2019-05-20T02:05:35.976Z,12.20
2019-05-20T02:08:05.110Z,12.30
2019-05-20T02:10:34.258Z,12.70
2019-05-20T02:13:05.844Z,13.23
2019-05-20T02:15:36.640Z,12.80
2019-05-20T02:18:05.759Z,12.07
2019-05-20T02:20:35.633Z,12.87
2019-05-20T02:23:15.409Z,13.00
2019-05-20T02:25:47.057Z,11.97
2019-05-20T02:28:16.833Z,12.37
2019-05-20T02:30:46.435Z,12.57
2019-05-20T02:33:17.232Z,11.90
2019-05-20T02:35:46.465Z,12.37
2019-05-20T02:38:15.667Z,13.03
2019-05-20T02:40:45.475Z,11.77
2019-05-20T02:43:15.290Z,12.80
2019-05-20T02:45:44.501Z,13.23
2019-05-20T02:48:13.624Z,12.63
2019-05-20T02:50:43.609Z,13.23
2019-05-20T02:53:12.734Z,11.67
2019-05-20T02:55:41.887Z,11.97
2019-05-20T02:58:11.595Z,12.33
2019-05-20T03:00:40.751Z,12.13
2019-05-20T03:03:10.338Z,12.10
2019-05-20T03:05:39.527Z,12.17
2019-05-20T03:08:08.675Z,12.53
2019-05-20T03:10:37.807Z,12.80
2019-05-20T03:13:06.999Z,12.17
2019-05-20T03:15:36.431Z,12.23
2019-05-20T03:18:05.631Z,12.43
2019-05-20T03:20:34.763Z,12.10
2019-05-20T03:23:04.120Z,12.13
2019-05-20T03:25:33.824Z,12.53
2019-05-20T03:28:04.911Z,12.63
2019-05-20T03:30:34.059Z,12.10
2019-05-20T03:33:04.579Z,13.27
2019-05-20T03:35:33.722Z,12.60
2019-05-20T03:38:03.275Z,13.43
2019-05-20T03:40:32.424Z,12.90
2019-05-20T03:43:01.712Z,12.43
2019-05-20T03:45:31.981Z,12.70
2019-05-20T03:48:01.126Z,12.77
2019-05-20T03:50:31.184Z,13.27
2019-05-20T03:53:00.331Z,13.00
2019-05-20T03:55:29.465Z,12.77
2019-05-20T03:57:59.379Z,13.60
2019-05-20T04:00:43.030Z,14.20
2019-05-20T04:03:12.566Z,12.73
2019-05-20T04:05:41.707Z,13.13
2019-05-20T04:08:10.857Z,12.27
2019-05-20T04:10:40.005Z,13.97
2019-05-20T04:13:10.785Z,13.93
2019-05-20T04:15:39.911Z,13.97
2019-05-20T04:18:10.128Z,13.97
2019-05-20T04:20:39.267Z,13.67
2019-05-20T04:23:08.417Z,13.30
2019-05-20T04:25:37.596Z,13.63
2019-05-20T04:28:06.751Z,13.27
2019-05-20T04:30:35.895Z,13.20
2019-05-20T04:33:05.358Z,12.77
2019-05-20T04:35:34.967Z,13.57
2019-05-20T04:38:04.095Z,13.30
2019-05-20T04:40:33.301Z,14.07
2019-05-20T04:43:03.174Z,14.37
2019-05-20T04:45:32.580Z,13.73
2019-05-20T04:48:02.651Z,14.77
2019-05-20T04:50:32.370Z,14.47
2019-05-20T04:53:01.515Z,14.50
2019-05-20T04:55:30.738Z,15.03
2019-05-20T04:58:00.213Z,15.03
2019-05-20T05:00:48.109Z,15.00
2019-05-20T05:03:17.812Z,15.17
2019-05-20T05:05:47.588Z,15.10
2019-05-20T05:08:17.467Z,16.13
2019-05-20T05:10:46.600Z,15.97
2019-05-20T05:13:16.799Z,15.83
2019-05-20T05:15:45.923Z,16.13
2019-05-20T05:18:15.053Z,15.27
2019-05-20T05:20:44.211Z,15.77
2019-05-20T05:23:13.410Z,16.90
2019-05-20T05:25:42.548Z,16.67
2019-05-20T05:28:12.293Z,16.13
2019-05-20T05:30:41.462Z,16.17
2019-05-20T05:33:10.589Z,16.33
2019-05-20T05:35:52.315Z,16.57
2019-05-20T05:38:10.609Z,16.07
2019-05-20T05:40:40.427Z,14.97
2019-05-20T05:43:09.555Z,15.30
2019-05-20T05:45:39.318Z,16.47
2019-05-20T05:48:08.604Z,15.97
2019-05-20T05:50:37.757Z,17.27
2019-05-20T05:53:06.899Z,16.37
2019-05-20T05:55:36.024Z,16.10
2019-05-20T05:58:08.399Z,16.30
2019-05-20T06:00:36.017Z,16.53
2019-05-20T06:03:05.144Z,15.63
2019-05-20T06:05:34.303Z,15.03
2019-05-20T06:08:03.428Z,15.37
2019-05-20T06:10:35.538Z,15.13
2019-05-20T06:13:04.053Z,15.40
2019-05-20T06:15:34.126Z,16.07
2019-05-20T06:18:05.240Z,16.33
2019-05-20T06:20:34.363Z,17.17
2019-05-20T06:23:03.863Z,15.83
2019-05-20T06:25:33.318Z,16.30
2019-05-20T06:28:03.159Z,16.30
2019-05-20T06:30:38.284Z,15.73
2019-05-20T06:33:07.431Z,16.93
2019-05-20T06:35:36.579Z,17.03
2019-05-20T06:38:07.364Z,15.67
2019-05-20T06:40:36.512Z,16.10
2019-05-20T06:43:06.002Z,16.33
2019-05-20T06:45:35.822Z,17.10
2019-05-20T06:48:04.954Z,19.57
2019-05-20T06:50:34.073Z,16.80
2019-05-20T06:53:04.828Z,16.20
2019-05-20T06:55:34.252Z,16.70
2019-05-20T06:58:04.364Z,16.90
2019-05-20T07:00:38.145Z,16.70
2019-05-20T07:03:07.683Z,16.37
2019-05-20T07:05:36.901Z,16.13
2019-05-20T07:08:06.024Z,17.30
2019-05-20T07:10:35.155Z,16.50
2019-05-20T07:13:04.285Z,17.23
2019-05-20T07:15:33.471Z,15.57
2019-05-20T07:18:02.643Z,16.80
2019-05-20T07:20:31.964Z,15.87
2019-05-20T07:23:03.024Z,15.87
2019-05-20T07:25:32.172Z,16.83
2019-05-20T07:28:02.595Z,16.77
2019-05-20T07:30:32.360Z,16.77
2019-05-20T07:33:01.800Z,17.17
2019-05-20T07:35:31.592Z,16.20
2019-05-20T07:38:02.662Z,17.43
2019-05-20T07:40:32.464Z,16.90
2019-05-20T07:43:02.414Z,16.30
2019-05-20T07:45:33.709Z,16.40
2019-05-20T07:48:03.239Z,16.63
2019-05-20T07:50:33.188Z,16.60
2019-05-20T07:53:02.459Z,17.83
2019-05-20T07:55:32.866Z,16.50
2019-05-20T07:58:05.293Z,16.00
2019-05-20T08:00:35.009Z,16.73
2019-05-20T08:03:04.384Z,16.90
2019-05-20T08:05:34.098Z,18.20
2019-05-20T08:08:03.239Z,17.90
2019-05-20T08:10:32.653Z,17.83
2019-05-20T08:13:03.181Z,17.53
2019-05-20T08:15:32.317Z,17.83
2019-05-20T08:18:02.635Z,18.27
2019-05-20T08:20:31.790Z,17.53
2019-05-20T08:23:01.022Z,17.93
2019-05-20T08:25:30.547Z,16.87
2019-05-20T08:27:59.692Z,17.83
2019-05-20T08:30:34.130Z,17.77
2019-05-20T08:33:04.883Z,17.90
2019-05-20T08:35:34.017Z,19.30
2019-05-20T08:38:04.478Z,16.87
2019-05-20T08:40:34.119Z,16.70
2019-05-20T08:43:03.450Z,16.13
2019-05-20T08:45:33.168Z,16.60
2019-05-20T08:48:02.307Z,16.43
2019-05-20T08:50:32.001Z,15.37
2019-05-20T08:53:01.773Z,15.27
2019-05-20T08:55:31.483Z,15.50
2019-05-20T08:58:00.694Z,15.63
2019-05-20T09:00:29.884Z,15.37
2019-05-20T09:02:59.106Z,15.90
2019-05-20T09:05:28.859Z,15.03
2019-05-20T09:08:03.811Z,15.73
2019-05-20T09:10:30.289Z,16.33
2019-05-20T09:12:59.545Z,15.23
2019-05-20T09:15:28.956Z,15.03
2019-05-20T09:17:58.157Z,14.73
2019-05-20T09:20:27.295Z,14.80
2019-05-20T09:22:56.444Z,14.63
2019-05-20T09:25:30.734Z,14.20
2019-05-20T09:28:00.571Z,15.10
2019-05-20T09:30:29.715Z,14.57
2019-05-20T09:32:58.971Z,14.83
2019-05-20T09:35:28.290Z,14.93
2019-05-20T09:37:57.491Z,15.07
2019-05-20T09:40:37.789Z,14.17
2019-05-20T09:43:07.287Z,14.93
2019-05-20T09:45:36.831Z,15.10
2019-05-20T09:48:05.972Z,14.23
2019-05-20T09:50:35.432Z,14.43
2019-05-20T09:53:06.775Z,14.33
2019-05-20T09:55:35.799Z,14.87
2019-05-20T09:58:06.204Z,14.30
2019-05-20T10:00:35.497Z,13.80
2019-05-20T10:03:05.175Z,13.87
2019-05-20T10:05:37.148Z,14.17
2019-05-20T10:08:06.048Z,14.03
2019-05-20T10:10:35.200Z,13.73
2019-05-20T10:13:05.656Z,12.60
2019-05-20T10:15:35.016Z,13.10
2019-05-20T10:18:04.725Z,13.53
2019-05-20T10:20:33.895Z,12.70
2019-05-20T10:23:03.381Z,12.83
2019-05-20T10:25:33.555Z,13.40
2019-05-20T10:28:03.269Z,13.93
2019-05-20T10:30:32.455Z,13.50
2019-05-20T10:33:02.463Z,12.37
2019-05-20T10:35:31.606Z,11.63
2019-05-20T10:38:00.784Z,12.63
2019-05-20T10:40:31.198Z,12.10
2019-05-20T10:43:00.413Z,12.77
2019-05-20T10:45:29.725Z,12.43
2019-05-20T10:47:59.027Z,12.43
2019-05-20T10:50:28.170Z,11.53
2019-05-20T10:52:57.306Z,13.43
2019-05-20T10:55:26.471Z,14.87
2019-05-20T10:57:55.889Z,16.33
2019-05-20T11:00:25.015Z,17.07
2019-05-20T11:02:54.168Z,18.27
2019-05-20T11:05:23.978Z,19.53
2019-05-20T11:07:53.135Z,18.63
2019-05-20T11:10:22.843Z,19.77
2019-05-20T11:12:51.976Z,18.53
2019-05-20T11:15:21.193Z,13.07
2019-05-20T11:17:50.321Z,30.10
2019-05-20T11:20:20.439Z,23.53
2019-05-20T11:22:49.564Z,25.50
2019-05-20T11:25:18.745Z,17.87
2019-05-20T11:27:47.934Z,13.87
2019-05-20T11:30:17.080Z,12.20
2019-05-20T11:32:46.204Z,13.03
2019-05-20T11:35:16.932Z,11.03
2019-05-20T11:37:46.059Z,15.00
2019-05-20T11:40:15.775Z,19.63
2019-05-20T11:42:44.911Z,23.37
2019-05-20T11:45:15.009Z,22.07
2019-05-20T11:47:44.142Z,21.00
2019-05-20T11:50:13.494Z,24.13
2019-05-20T11:52:42.620Z,26.50
2019-05-20T11:55:11.748Z,24.27
2019-05-20T11:57:40.899Z,27.30
2019-05-20T12:00:10.388Z,28.77
2019-05-20T12:02:39.512Z,26.83
2019-05-20T12:05:08.724Z,26.17
2019-05-20T12:07:38.439Z,30.33
2019-05-20T12:10:08.113Z,27.40
2019-05-20T12:12:37.704Z,28.17
2019-05-20T12:15:08.348Z,24.77
2019-05-20T12:17:38.403Z,25.30
2019-05-20T12:20:09.821Z,24.40
2019-05-20T12:22:39.025Z,21.20
2019-05-20T12:25:08.147Z,20.33
2019-05-20T12:27:37.344Z,21.43
2019-05-20T12:30:06.686Z,20.63
2019-05-20T12:32:36.512Z,21.23
2019-05-20T12:35:08.610Z,21.50
2019-05-20T12:37:37.745Z,21.47
2019-05-20T12:40:08.377Z,20.07
2019-05-20T12:42:37.967Z,20.13
2019-05-20T12:45:08.850Z,18.73
2019-05-20T12:47:37.970Z,18.90
2019-05-20T12:50:07.279Z,18.63
2019-05-20T12:52:37.220Z,17.10
2019-05-20T12:55:09.477Z,17.10
2019-05-20T12:57:37.741Z,16.23
2019-05-20T13:00:11.176Z,15.77
2019-05-20T13:02:41.835Z,16.97
2019-05-20T13:05:11.042Z,15.60
2019-05-20T13:07:40.455Z,15.60
2019-05-20T13:10:26.816Z,14.30
2019-05-20T13:12:40.597Z,13.93
2019-05-20T13:15:10.189Z,14.13
2019-05-20T13:17:44.342Z,13.67
2019-05-20T13:20:10.160Z,13.20
2019-05-20T13:22:39.292Z,13.00
2019-05-20T13:25:08.421Z,13.20
2019-05-20T13:27:38.551Z,12.80
2019-05-20T13:30:08.024Z,13.57
2019-05-20T13:32:37.156Z,13.03
2019-05-20T13:35:06.846Z,12.03
2019-05-20T13:37:35.991Z,12.07
2019-05-20T13:40:08.441Z,11.77
2019-05-20T13:42:37.579Z,10.90
2019-05-20T13:45:07.097Z,11.50
2019-05-20T13:47:36.798Z,11.40
2019-05-20T13:50:07.742Z,12.00
2019-05-20T13:52:36.940Z,11.83
2019-05-20T13:55:06.076Z,12.13
2019-05-20T13:57:35.286Z,12.53
2019-05-20T14:00:06.541Z,12.90
2019-05-20T14:02:35.688Z,13.87
2019-05-20T14:05:05.593Z,13.73
2019-05-20T14:07:34.783Z,12.67
2019-05-20T14:10:07.999Z,13.57
2019-05-20T14:12:38.258Z,14.00
2019-05-20T14:15:08.123Z,14.20
2019-05-20T14:17:37.847Z,13.60
2019-05-20T14:20:06.980Z,13.47
2019-05-20T14:22:36.123Z,13.13
2019-05-20T14:25:06.494Z,12.60
2019-05-20T14:27:36.136Z,11.77
2019-05-20T14:30:06.869Z,13.23
2019-05-20T14:32:36.052Z,13.40
2019-05-20T14:35:06.123Z,13.23
2019-05-20T14:37:35.243Z,13.67
2019-05-20T14:40:05.704Z,13.53
2019-05-20T14:42:34.912Z,13.63
2019-05-20T14:45:05.604Z,15.47
2019-05-20T14:47:35.868Z,15.97
2019-05-20T14:50:09.281Z,16.57
2019-05-20T14:52:38.493Z,17.97
2019-05-20T14:55:07.681Z,18.83
2019-05-20T14:57:36.826Z,19.20
2019-05-20T15:00:07.231Z,20.43
2019-05-20T15:02:36.633Z,20.53
2019-05-20T15:05:08.681Z,21.50
2019-05-20T15:07:37.831Z,21.83
2019-05-20T15:10:07.891Z,31.00
2019-05-20T15:12:37.609Z,43.13
2019-05-20T15:15:06.931Z,48.87
2019-05-20T15:17:36.133Z,14.67
2019-05-20T15:20:06.516Z,22.30
2019-05-20T15:22:35.645Z,18.13
2019-05-20T15:25:05.533Z,21.07
2019-05-20T15:27:35.898Z,13.00
2019-05-20T15:30:07.680Z,18.30
2019-05-20T15:32:36.822Z,16.80
2019-05-20T15:35:05.953Z,22.53
2019-05-20T15:37:35.725Z,11.40
2019-05-20T15:40:06.096Z,13.27
2019-05-20T15:42:35.829Z,13.03
2019-05-20T15:45:08.231Z,9.93
2019-05-20T15:47:37.372Z,14.80
2019-05-20T15:50:09.546Z,12.03
2019-05-20T15:52:37.407Z,12.00
2019-05-20T15:55:06.560Z,16.73
2019-05-20T15:57:35.764Z,12.27
2019-05-20T16:00:08.294Z,10.53
2019-05-20T16:02:37.709Z,18.03
2019-05-20T16:05:06.870Z,20.13
2019-05-20T16:07:36.023Z,14.87
2019-05-20T16:10:05.210Z,16.43
2019-05-20T16:12:35.020Z,15.47
2019-05-20T16:15:06.262Z,14.83
2019-05-20T16:17:36.049Z,22.17
2019-05-20T16:20:07.177Z,17.63
2019-05-20T16:22:36.528Z,15.47
2019-05-20T16:25:06.539Z,15.27
2019-05-20T16:27:35.714Z,15.77
2019-05-20T16:30:11.026Z,21.00
2019-05-20T16:32:40.842Z,23.00
2019-05-20T16:35:10.539Z,18.90
2019-05-20T16:37:39.657Z,20.20
2019-05-20T16:40:08.810Z,18.07
2019-05-20T16:42:38.602Z,20.63
2019-05-20T16:45:11.595Z,18.87
2019-05-20T16:47:39.210Z,17.03
2019-05-20T16:50:09.755Z,14.53
2019-05-20T16:52:39.300Z,17.83
2019-05-20T16:55:08.613Z,15.30
2019-05-20T16:57:38.031Z,15.20
2019-05-20T17:00:16.139Z,14.10
2019-05-20T17:02:43.748Z,20.57
2019-05-20T17:05:17.527Z,14.70
2019-05-20T17:07:46.705Z,17.27
2019-05-20T17:10:16.213Z,17.27
2019-05-20T17:12:45.369Z,16.67
2019-05-20T17:15:16.634Z,20.10
2019-05-20T17:17:45.824Z,18.10
2019-05-20T17:20:14.971Z,20.90
2019-05-20T17:22:44.100Z,27.40
2019-05-20T17:25:14.220Z,24.40
2019-05-20T17:27:43.441Z,25.77
2019-05-20T17:30:12.722Z,24.50
2019-05-20T17:32:42.336Z,19.83
2019-05-20T17:35:11.461Z,17.83
2019-05-20T17:37:40.614Z,16.40
2019-05-20T17:40:09.805Z,17.40
2019-05-20T17:42:38.983Z,15.63
2019-05-20T17:45:08.704Z,20.20
2019-05-20T17:47:37.835Z,17.03
2019-05-20T17:50:07.148Z,16.70
2019-05-20T17:52:37.835Z,14.00
2019-05-20T17:55:07.031Z,12.33
2019-05-20T17:57:36.369Z,13.77
2019-05-20T18:00:08.615Z,15.97
2019-05-20T18:02:37.759Z,16.83
2019-05-20T18:05:07.268Z,14.97
2019-05-20T18:07:36.416Z,15.17
2019-05-20T18:10:06.327Z,17.70
2019-05-20T18:12:36.031Z,15.57
2019-05-20T18:15:05.390Z,16.80
2019-05-20T18:17:35.084Z,16.60
2019-05-20T18:20:05.771Z,15.77
2019-05-20T18:22:34.915Z,16.67
2019-05-20T18:25:06.382Z,17.80
2019-05-20T18:27:36.472Z,19.63
2019-05-20T18:30:06.866Z,20.60
2019-05-20T18:32:38.530Z,17.40
2019-05-20T18:35:07.119Z,17.53
2019-05-20T18:37:36.366Z,16.20
2019-05-20T18:40:13.867Z,17.17
2019-05-20T18:42:38.807Z,17.20
2019-05-20T18:45:07.963Z,17.00
2019-05-20T18:47:37.078Z,16.27
2019-05-20T18:50:07.055Z,17.27
2019-05-20T18:52:36.528Z,14.40
2019-05-20T18:55:06.323Z,17.63
2019-05-20T18:57:35.475Z,12.87
2019-05-20T19:00:07.440Z,10.80
2019-05-20T19:02:38.994Z,12.80
2019-05-20T19:05:09.102Z,14.43
2019-05-20T19:07:38.260Z,10.23
2019-05-20T19:10:08.071Z,11.30
2019-05-20T19:12:37.420Z,10.83
2019-05-20T19:15:06.925Z,11.40
2019-05-20T19:17:36.208Z,11.10
2019-05-20T19:20:07.095Z,11.90
2019-05-20T19:22:36.222Z,13.17
2019-05-20T19:25:06.901Z,13.60
2019-05-20T19:27:36.432Z,15.03
2019-05-20T19:30:05.842Z,13.60
2019-05-20T19:32:35.357Z,16.47
2019-05-20T19:35:08.403Z,17.47
2019-05-20T19:37:38.958Z,14.90
2019-05-20T19:40:10.512Z,17.17
2019-05-20T19:42:41.836Z,13.70
2019-05-20T19:45:10.990Z,15.10
2019-05-20T19:47:40.136Z,14.67
2019-05-20T19:50:09.262Z,14.03
2019-05-20T19:52:38.563Z,15.50
2019-05-20T19:55:08.875Z,14.77
2019-05-20T19:57:37.995Z,14.03
2019-05-20T20:00:08.289Z,18.23
2019-05-20T20:02:37.504Z,16.33
2019-05-20T20:05:09.625Z,15.40
2019-05-20T20:07:38.749Z,16.03
2019-05-20T20:10:07.902Z,16.67
2019-05-20T20:12:37.093Z,15.80
2019-05-20T20:15:06.242Z,14.70
2019-05-20T20:17:35.362Z,15.30
2019-05-20T20:20:05.151Z,15.83
2019-05-20T20:22:34.300Z,11.00
2019-05-20T20:25:04.369Z,11.37
2019-05-20T20:27:34.052Z,12.13
2019-05-20T20:30:03.667Z,10.90
2019-05-20T20:32:38.008Z,11.63
2019-05-20T20:35:06.334Z,9.27
2019-05-20T20:37:35.483Z,11.77
2019-05-20T20:40:05.104Z,10.13
2019-05-20T20:42:34.229Z,11.50
2019-05-20T20:45:05.381Z,11.30
2019-05-20T20:47:41.641Z,9.77
2019-05-20T20:50:05.991Z,10.27
2019-05-20T20:52:35.190Z,10.07
2019-05-20T20:55:07.991Z,8.67
2019-05-20T20:57:37.922Z,9.97
2019-05-20T21:00:08.726Z,12.00
2019-05-20T21:02:50.842Z,10.40
2019-05-20T21:05:08.827Z,10.00
2019-05-20T21:07:37.959Z,8.90
2019-05-20T21:10:07.163Z,7.50
2019-05-20T21:12:36.306Z,7.07
2019-05-20T21:15:05.607Z,7.50
2019-05-20T21:17:34.727Z,8.43
2019-05-20T21:20:06.052Z,7.33
2019-05-20T21:22:35.216Z,9.33
2019-05-20T21:25:06.190Z,8.60
2019-05-20T21:27:35.332Z,9.47
2019-05-20T21:30:06.207Z,9.90
2019-05-20T21:32:35.329Z,9.17
2019-05-20T21:35:05.210Z,12.00
2019-05-20T21:37:34.903Z,11.97
2019-05-20T21:40:04.713Z,13.13
2019-05-20T21:42:34.455Z,13.60
2019-05-20T21:45:07.434Z,12.33
2019-05-20T21:47:37.136Z,12.00
2019-05-20T21:50:06.265Z,10.60
2019-05-20T21:52:36.479Z,11.70
2019-05-20T21:55:06.584Z,10.63
2019-05-20T21:57:35.734Z,10.37
2019-05-20T22:00:10.743Z,10.53
2019-05-20T22:02:42.067Z,8.83
2019-05-20T22:05:11.188Z,9.93
2019-05-20T22:07:40.317Z,9.20
2019-05-20T22:10:10.433Z,9.77
2019-05-20T22:12:39.552Z,10.07
